Etusivu
METAR-TAF:

METAR-TAF

Lentoasemat :

Naha, Japani

Leveyspiiri: 26-11N, Pituuspiiri: 127-39E, korkeus merenpinnasta: 3 m

Tämänhetkinen sää

Tämä raportti tehtiin 17 minuuttia sitten, kello 18.00 UTC
Tuuli 17 kn pohjoisesta
Lämpötila 23°C
Kosteus 65%
Ilmanpaine 1017 hPa
Näkyvyys 10 km tai enemmän
Muutamia pilviä 3200 ft:n korkeudessa
Hajanaisia pilviä 5000 ft:n korkeudessa
Hajonneita pilviä

METAR: ROAH 131800Z 35017KT 9999 FEW032 SCT050 BKN/// 23/16 Q1017 RMK 2CU032 3SC050 A3005

Aika: 03:17 (18:17 UTC)

Sääennuste

Tämä raportti tehtiin 1 tunti ja 10 minuuttia sitten, kello 17.07 UTC
Ennuste voimassa 13. päivästä klo 18 UTC - 15. päivään klo 00 UTC
Tuuli 16 kn pohjoisesta
Näkyvyys 10 km tai enemmän
Muutamia pilviä 2500 ft:n korkeudessa
Hajanaisia pilviä 4500 ft:n korkeudessa

TAF: ROAH 131707Z 1318/1500 01016KT 9999 FEW025 SCT045

Säähavainnot ja -ennusteet yli 4000 lentoasemalta (METAR- ja TAF-raportit).

Käytössä olevat sääasemat on merkitty karttaan keltaisilla ja punaisilla pisteillä.

Aseta hiiri pisteen päälle nähdäksesi sääaseman nimen.

Klikkaa sitten nähdäksesi säähavainnot ja -ennusteet.

Kartan vaihtaminen: klikkaa mustalla rastilla varustettuja vihreitä pisteitä, niin voit zoomata sisään; viivalla varustettua vihreää pistettä, niin voit zoomata ulos tai vihreitä nuolia, niin pääset viereisille kartoille.


METAR-TAF: